Time;durP1;ratioP1;P1;durP2;ratioP2;P2;SDS_P1;SDS_P2;PMS_P1;PMS_P2;Temp;Humidity;BMP_temperature;BMP_pressure;BME280_temperature;BME280_humidity;BME280_pressure;Samples;Min_cycle;Max_cycle;Signal;HPM_P1;HPM_P2
2023/07/05 00:01:49;;;;;;;7.68;3.38;;;16.20;96.80;;;;;;4922897;29;20096;-64
2023/07/05 00:04:16;;;;;;;5.75;3.47;;;16.20;96.70;;;;;;4903298;29;20031;-65
2023/07/05 00:06:41;;;;;;;6.60;3.40;;;16.20;96.40;;;;;;4921052;29;20032;-64
2023/07/05 00:09:07;;;;;;;7.07;3.42;;;16.20;96.30;;;;;;4928238;29;20099;-64
2023/07/05 00:11:33;;;;;;;8.48;3.65;;;16.20;96.30;;;;;;4908674;29;20106;-64
2023/07/05 00:13:59;;;;;;;8.68;3.58;;;16.20;96.20;;;;;;4922550;29;20043;-64
2023/07/05 00:16:25;;;;;;;7.43;3.25;;;16.20;96.30;;;;;;4920362;29;20123;-64
2023/07/05 00:18:51;;;;;;;6.15;3.40;;;16.20;96.20;;;;;;4919817;29;20091;-64
2023/07/05 00:21:16;;;;;;;6.72;3.28;;;16.20;96.20;;;;;;4922895;29;20059;-64
2023/07/05 00:23:48;;;;;;;6.38;3.45;;;16.10;96.30;;;;;;4917756;29;20044;-65
2023/07/05 00:26:14;;;;;;;6.22;3.60;;;16.10;96.50;;;;;;4926490;29;20429;-65
2023/07/05 00:28:40;;;;;;;8.52;3.65;;;16.10;96.70;;;;;;4907439;29;20035;-65
2023/07/05 00:31:06;;;;;;;6.80;3.30;;;16.00;96.70;;;;;;4908067;29;20141;-64
2023/07/05 00:33:32;;;;;;;8.07;3.22;;;16.00;96.80;;;;;;4907996;29;20099;-65
2023/07/05 00:35:58;;;;;;;6.78;3.33;;;16.00;96.90;;;;;;4921140;29;20055;-65
2023/07/05 00:38:24;;;;;;;7.10;3.80;;;16.00;96.90;;;;;;4922068;29;20436;-65
2023/07/05 00:40:51;;;;;;;7.25;4.05;;;16.00;97.00;;;;;;4919453;29;20032;-65
2023/07/05 00:43:18;;;;;;;7.63;3.72;;;16.00;97.10;;;;;;4922475;29;20028;-65
2023/07/05 00:45:59;;;;;;;8.65;4.10;;;16.00;97.20;;;;;;4924648;29;20031;-65
2023/07/05 00:48:53;;;;;;;6.40;3.17;;;15.90;97.30;;;;;;4921408;29;20515;-65
2023/07/05 00:51:27;;;;;;;7.03;3.80;;;15.90;97.40;;;;;;4919429;29;20039;-65
2023/07/05 00:53:57;;;;;;;6.55;3.60;;;15.90;97.40;;;;;;4904634;29;20036;-65
2023/07/05 00:56:28;;;;;;;5.18;3.22;;;15.90;97.60;;;;;;4917899;29;20126;-65
2023/07/05 00:58:57;;;;;;;9.20;3.70;;;15.90;97.80;;;;;;4922968;29;20095;-65
2023/07/05 01:01:24;;;;;;;4.95;3.53;;;15.90;98.00;;;;;;4922926;29;20031;-65
2023/07/05 01:03:53;;;;;;;5.95;3.47;;;15.90;98.10;;;;;;4924874;29;20454;-65
2023/07/05 01:06:22;;;;;;;6.85;3.58;;;15.90;98.00;;;;;;4924836;29;20055;-65
2023/07/05 01:08:49;;;;;;;4.57;3.50;;;15.90;98.10;;;;;;4921510;29;20423;-65
2023/07/05 01:11:30;;;;;;;7.28;3.38;;;15.90;98.10;;;;;;4918534;29;20050;-65
2023/07/05 01:14:07;;;;;;;7.28;3.33;;;15.90;98.00;;;;;;4902539;29;20072;-66
2023/07/05 01:16:39;;;;;;;4.63;3.10;;;16.00;98.00;;;;;;4919528;29;20523;-65
2023/07/05 01:19:06;;;;;;;4.70;3.38;;;16.10;98.20;;;;;;4908933;29;20530;-65
2023/07/05 01:21:43;;;;;;;6.40;3.63;;;16.10;98.10;;;;;;4925040;29;20031;-65
2023/07/05 01:24:24;;;;;;;7.45;3.45;;;16.20;97.80;;;;;;4906190;29;20051;-65
2023/07/05 01:27:03;;;;;;;9.00;3.13;;;16.30;97.40;;;;;;4920982;29;20457;-65
2023/07/05 01:30:16;;;;;;;4.10;3.10;;;16.40;96.80;;;;;;4902377;29;20038;-65
2023/07/05 01:33:07;;;;;;;7.28;3.20;;;16.40;95.70;;;;;;4917298;29;20774;-65
2023/07/05 01:35:44;;;;;;;5.10;3.17;;;16.50;96.00;;;;;;4922952;29;20103;-65
2023/07/05 01:38:10;;;;;;;4.13;2.72;;;16.50;96.30;;;;;;4923134;29;20036;-65
2023/07/05 01:40:36;;;;;;;8.55;3.28;;;16.60;96.70;;;;;;4925693;29;20880;-65
2023/07/05 01:43:12;;;;;;;7.70;3.33;;;16.60;96.70;;;;;;4923073;29;20600;-65
2023/07/05 01:45:44;;;;;;;5.35;3.20;;;16.60;96.60;;;;;;4918856;29;20024;-65
2023/07/05 01:48:16;;;;;;;5.72;3.35;;;16.60;96.30;;;;;;4921134;29;20055;-65
2023/07/05 01:50:57;;;;;;;7.45;2.65;;;16.60;96.30;;;;;;4917141;29;20040;-65
2023/07/05 01:53:50;;;;;;;5.15;2.92;;;16.70;96.70;;;;;;4918651;29;20404;-65
2023/07/05 01:56:24;;;;;;;5.93;3.08;;;16.70;96.30;;;;;;4923377;29;20089;-65
2023/07/05 01:58:54;;;;;;;5.78;3.15;;;16.80;96.40;;;;;;4920175;29;20031;-65
2023/07/05 02:01:22;;;;;;;7.03;2.85;;;16.80;95.90;;;;;;4904987;29;20035;-65
2023/07/05 02:03:49;;;;;;;7.78;2.70;;;16.80;95.90;;;;;;4904894;29;20046;-65
2023/07/05 02:06:17;;;;;;;4.80;2.88;;;16.80;95.90;;;;;;4918411;29;20036;-65
2023/07/05 02:08:48;;;;;;;5.72;2.90;;;16.80;96.00;;;;;;4916816;29;20112;-65
2023/07/05 02:11:14;;;;;;;5.70;2.97;;;16.80;95.90;;;;;;4908845;29;20075;-65
2023/07/05 02:13:40;;;;;;;4.25;2.60;;;16.80;95.90;;;;;;4907500;29;20042;-65
2023/07/05 02:16:06;;;;;;;6.47;3.17;;;16.80;95.90;;;;;;4907601;29;20027;-65
2023/07/05 02:18:31;;;;;;;9.57;3.40;;;16.80;95.80;;;;;;4920720;29;20043;-65
2023/07/05 02:20:57;;;;;;;6.13;3.30;;;16.80;95.50;;;;;;4907584;29;20099;-65
2023/07/05 02:23:23;;;;;;;4.30;3.00;;;16.80;95.30;;;;;;4919162;29;20142;-65
2023/07/05 02:25:53;;;;;;;4.32;3.03;;;16.80;95.30;;;;;;4917844;29;20036;-65
2023/07/05 02:28:19;;;;;;;4.85;2.95;;;16.80;94.80;;;;;;4917401;29;20091;-65
2023/07/05 02:30:44;;;;;;;5.25;3.05;;;16.90;94.70;;;;;;4908287;29;20036;-64
2023/07/05 02:33:10;;;;;;;5.70;3.10;;;16.90;94.50;;;;;;4908923;29;20108;-64
2023/07/05 02:35:38;;;;;;;5.28;3.35;;;16.90;94.50;;;;;;4922047;29;20035;-65
2023/07/05 02:38:05;;;;;;;8.00;3.53;;;17.00;94.40;;;;;;4906942;29;20028;-64
2023/07/05 02:40:32;;;;;;;4.13;2.80;;;16.90;93.60;;;;;;4919103;29;20075;-65
2023/07/05 02:42:59;;;;;;;6.20;3.30;;;16.90;93.80;;;;;;4918494;29;20559;-64
2023/07/05 02:45:28;;;;;;;5.13;3.22;;;16.90;94.00;;;;;;4918899;29;20040;-64
2023/07/05 02:47:54;;;;;;;8.48;3.60;;;16.90;94.10;;;;;;4907454;29;20039;-64
2023/07/05 02:50:20;;;;;;;6.72;3.28;;;17.00;94.20;;;;;;4923885;29;20046;-64
2023/07/05 02:52:46;;;;;;;10.48;3.67;;;16.90;94.20;;;;;;4921039;29;20048;-64
2023/07/05 02:55:12;;;;;;;5.93;3.25;;;16.90;94.20;;;;;;4922077;29;20024;-64
2023/07/05 02:57:38;;;;;;;7.40;3.40;;;16.90;94.10;;;;;;4920938;29;20048;-64
2023/07/05 03:00:06;;;;;;;12.10;3.75;;;16.90;94.10;;;;;;4902042;29;20044;-64
2023/07/05 03:02:33;;;;;;;4.40;3.30;;;16.90;94.00;;;;;;4915149;29;20038;-64
2023/07/05 03:05:06;;;;;;;7.50;3.28;;;17.00;93.80;;;;;;4921087;29;20137;-64
2023/07/05 03:07:32;;;;;;;4.22;2.92;;;16.90;93.90;;;;;;4901697;29;20756;-65
2023/07/05 03:09:58;;;;;;;5.57;2.92;;;16.90;93.90;;;;;;4924680;29;20035;-64
2023/07/05 03:12:24;;;;;;;7.07;3.42;;;17.00;93.80;;;;;;4920121;29;20480;-64
2023/07/05 03:14:52;;;;;;;5.53;3.10;;;17.00;93.60;;;;;;4919045;29;20042;-64
2023/07/05 03:17:18;;;;;;;5.15;3.80;;;17.00;93.30;;;;;;4922802;29;20517;-64
2023/07/05 03:19:47;;;;;;;4.35;3.05;;;17.10;92.80;;;;;;4920317;29;20048;-64
2023/07/05 03:22:14;;;;;;;7.32;4.03;;;17.10;93.00;;;;;;4924574;29;20047;-64
2023/07/05 03:24:40;;;;;;;7.20;3.33;;;17.10;93.30;;;;;;4927061;29;20031;-64
2023/07/05 03:27:07;;;;;;;6.43;3.28;;;17.10;93.00;;;;;;4909175;29;20031;-64
2023/07/05 03:29:34;;;;;;;8.38;3.60;;;17.20;93.30;;;;;;4910015;29;20433;-64
2023/07/05 03:32:01;;;;;;;6.72;3.90;;;17.20;93.20;;;;;;4924100;29;20024;-64
2023/07/05 03:34:27;;;;;;;8.48;3.45;;;17.20;93.10;;;;;;4903597;29;20040;-64
2023/07/05 03:36:53;;;;;;;6.93;3.70;;;17.20;93.00;;;;;;4923036;29;20181;-64
2023/07/05 03:39:18;;;;;;;6.65;3.70;;;17.20;93.00;;;;;;4925683;29;20048;-64
2023/07/05 03:41:44;;;;;;;7.05;3.38;;;17.30;93.20;;;;;;4910073;29;20027;-64
2023/07/05 03:44:10;;;;;;;7.22;4.07;;;17.30;93.10;;;;;;4910987;29;20432;-64
2023/07/05 03:46:36;;;;;;;5.53;3.42;;;17.30;92.80;;;;;;4924229;29;20035;-64
2023/07/05 03:49:02;;;;;;;6.63;3.33;;;17.40;92.60;;;;;;4924821;29;20110;-64
2023/07/05 03:51:28;;;;;;;9.10;4.07;;;17.40;92.70;;;;;;4921645;29;20761;-64
2023/07/05 03:53:56;;;;;;;9.68;4.07;;;17.40;92.60;;;;;;4920595;29;20135;-64
2023/07/05 03:56:23;;;;;;;7.82;3.67;;;17.40;92.50;;;;;;4921540;29;20106;-64
2023/07/05 03:58:50;;;;;;;4.57;3.28;;;17.50;92.70;;;;;;4925876;29;20036;-64
2023/07/05 04:01:19;;;;;;;7.68;3.33;;;17.50;92.30;;;;;;4923720;29;20074;-64
2023/07/05 04:03:47;;;;;;;5.07;2.97;;;17.50;92.30;;;;;;4924898;29;20067;-64
2023/07/05 04:06:13;;;;;;;8.38;3.50;;;17.50;92.60;;;;;;4925602;29;20126;-64
2023/07/05 04:08:40;;;;;;;9.82;3.75;;;17.60;92.50;;;;;;4904873;29;20453;-64
2023/07/05 04:11:05;;;;;;;4.78;3.47;;;17.60;91.80;;;;;;4921878;29;20036;-64
2023/07/05 04:13:31;;;;;;;4.80;3.00;;;17.60;91.80;;;;;;4921390;29;20032;-64
2023/07/05 04:16:10;;;;;;;8.00;3.55;;;17.70;91.50;;;;;;4923083;29;20134;-64
2023/07/05 04:18:37;;;;;;;5.55;3.22;;;17.70;91.70;;;;;;4923269;29;20123;-64
2023/07/05 04:21:03;;;;;;;5.55;3.42;;;17.70;91.70;;;;;;4922551;29;20036;-64
2023/07/05 04:23:29;;;;;;;5.05;3.55;;;17.70;91.70;;;;;;4923297;29;20441;-64
2023/07/05 04:25:58;;;;;;;4.85;3.80;;;17.80;92.10;;;;;;4921903;29;20083;-64
2023/07/05 04:28:24;;;;;;;9.95;3.72;;;17.80;91.60;;;;;;4922485;29;20115;-64
2023/07/05 04:30:50;;;;;;;8.60;3.72;;;17.90;91.70;;;;;;4918692;29;20040;-66
2023/07/05 04:33:16;;;;;;;5.97;3.80;;;17.90;91.30;;;;;;4923852;29;20043;-64
2023/07/05 04:35:53;;;;;;;5.60;3.50;;;18.00;91.30;;;;;;4925650;29;20040;-65
2023/07/05 04:38:19;;;;;;;9.52;4.28;;;18.00;91.40;;;;;;4925351;29;20879;-64
2023/07/05 04:40:45;;;;;;;7.35;3.63;;;18.00;91.20;;;;;;4924061;29;20044;-64
2023/07/05 04:43:11;;;;;;;7.13;3.75;;;18.00;91.10;;;;;;4926746;29;20042;-64
2023/07/05 04:45:37;;;;;;;6.80;3.40;;;18.00;90.70;;;;;;4918969;29;20047;-64
2023/07/05 04:48:02;;;;;;;9.32;3.50;;;18.00;91.00;;;;;;4919870;29;20043;-64
2023/07/05 04:50:28;;;;;;;9.07;3.85;;;18.00;90.80;;;;;;4910016;29;20134;-64
2023/07/05 04:52:55;;;;;;;5.10;3.38;;;18.00;90.90;;;;;;4925637;29;20040;-64
2023/07/05 04:55:22;;;;;;;9.02;4.13;;;18.00;91.00;;;;;;4926213;29;20030;-64
2023/07/05 04:57:48;;;;;;;7.15;4.15;;;18.00;90.70;;;;;;4923709;29;20504;-64
2023/07/05 05:00:14;;;;;;;5.93;3.47;;;18.00;90.90;;;;;;4923807;29;20047;-64
2023/07/05 05:02:40;;;;;;;6.55;3.65;;;18.00;91.30;;;;;;4919344;29;20036;-64
2023/07/05 05:05:06;;;;;;;6.55;4.05;;;18.00;91.30;;;;;;4920571;29;20103;-64
2023/07/05 05:07:33;;;;;;;7.00;3.67;;;18.10;91.30;;;;;;4916368;29;20042;-64
2023/07/05 05:09:59;;;;;;;5.53;3.28;;;18.10;91.00;;;;;;4926193;29;20122;-65
2023/07/05 05:12:26;;;;;;;7.93;3.80;;;18.10;91.10;;;;;;4924856;29;20036;-64
2023/07/05 05:14:52;;;;;;;9.02;4.32;;;18.30;91.30;;;;;;4922753;29;20401;-64
2023/07/05 05:17:18;;;;;;;6.25;3.60;;;18.30;90.90;;;;;;4923055;29;20069;-64
2023/07/05 05:19:44;;;;;;;6.65;3.65;;;18.30;90.90;;;;;;4919442;29;20413;-64
2023/07/05 05:22:11;;;;;;;7.68;3.90;;;18.30;90.70;;;;;;4921400;29;20038;-64
2023/07/05 05:24:37;;;;;;;10.50;3.95;;;18.40;90.50;;;;;;4916787;29;20032;-64
2023/07/05 05:27:03;;;;;;;12.40;3.58;;;18.40;90.40;;;;;;4918769;29;20027;-64
2023/07/05 05:29:30;;;;;;;8.43;3.83;;;18.40;90.60;;;;;;4924014;29;20039;-64
2023/07/05 05:31:56;;;;;;;7.20;3.90;;;18.50;90.30;;;;;;4923026;29;20043;-64
2023/07/05 05:34:24;;;;;;;6.30;3.90;;;18.50;90.70;;;;;;4922682;29;20455;-63
2023/07/05 05:36:50;;;;;;;7.93;3.90;;;18.60;90.60;;;;;;4919911;29;20044;-64
2023/07/05 05:39:16;;;;;;;10.18;4.20;;;18.60;90.10;;;;;;4920429;29;20027;-63
2023/07/05 05:41:42;;;;;;;9.15;3.97;;;18.70;90.20;;;;;;4916224;29;20028;-64
2023/07/05 05:44:07;;;;;;;9.85;4.30;;;18.70;90.30;;;;;;4922361;29;20171;-64
2023/07/05 05:46:33;;;;;;;7.57;4.10;;;18.80;89.80;;;;;;4925213;29;20110;-63
2023/07/05 05:48:59;;;;;;;9.20;4.60;;;18.80;89.80;;;;;;4923229;29;20456;-64
2023/07/05 05:51:26;;;;;;;10.32;4.90;;;18.80;89.70;;;;;;4924584;29;20685;-64
2023/07/05 05:53:51;;;;;;;10.13;4.50;;;18.90;89.30;;;;;;4920396;29;20039;-63
2023/07/05 05:56:18;;;;;;;6.72;4.03;;;19.00;89.90;;;;;;4920082;29;20039;-63
2023/07/05 05:58:43;;;;;;;9.18;4.45;;;19.00;89.00;;;;;;4917017;29;20131;-64
2023/07/05 06:01:12;;;;;;;8.30;4.80;;;19.10;89.30;;;;;;4918919;29;20123;-63
2023/07/05 06:03:38;;;;;;;7.82;4.28;;;19.10;88.60;;;;;;4924017;29;20878;-64
2023/07/05 06:06:04;;;;;;;9.05;4.80;;;19.10;89.00;;;;;;4924524;29;20035;-64
2023/07/05 06:08:31;;;;;;;11.00;4.63;;;19.00;88.80;;;;;;4922801;29;20058;-64
2023/07/05 06:11:02;;;;;;;8.25;4.97;;;19.10;88.60;;;;;;4920966;29;20039;-63
2023/07/05 06:13:29;;;;;;;6.80;4.22;;;19.10;89.30;;;;;;4919242;29;20040;-64
2023/07/05 06:15:56;;;;;;;9.50;5.10;;;19.10;88.70;;;;;;4918515;29;20043;-64
2023/07/05 06:18:22;;;;;;;14.85;5.18;;;19.10;88.40;;;;;;4916478;29;20146;-63
2023/07/05 06:20:47;;;;;;;13.00;5.30;;;19.20;87.80;;;;;;4923568;29;20051;-63
2023/07/05 06:23:14;;;;;;;9.48;4.82;;;19.10;88.10;;;;;;4922747;29;20051;-63
2023/07/05 06:25:39;;;;;;;8.88;5.18;;;19.20;88.50;;;;;;4921078;29;20720;-64
2023/07/05 06:28:05;;;;;;;8.63;5.10;;;19.20;87.70;;;;;;4921600;29;20036;-63
2023/07/05 06:30:31;;;;;;;10.38;5.43;;;19.30;87.90;;;;;;4919417;29;20119;-64
2023/07/05 06:32:57;;;;;;;8.48;5.40;;;19.30;88.60;;;;;;4918579;29;20126;-63
2023/07/05 06:35:23;;;;;;;9.25;5.43;;;19.30;88.70;;;;;;4916665;29;20134;-64
2023/07/05 06:37:49;;;;;;;11.10;4.93;;;19.40;88.10;;;;;;4922414;29;20036;-64
2023/07/05 06:40:15;;;;;;;11.23;5.60;;;19.40;87.50;;;;;;4924242;29;20047;-64
2023/07/05 06:42:40;;;;;;;15.15;6.10;;;19.40;87.40;;;;;;4921827;29;20408;-64
2023/07/05 06:45:12;;;;;;;12.43;6.18;;;19.40;87.30;;;;;;4908938;29;20756;-63
2023/07/05 06:47:38;;;;;;;9.23;5.10;;;19.30;88.20;;;;;;4907948;29;20040;-63
2023/07/05 06:50:05;;;;;;;11.07;5.63;;;19.30;88.50;;;;;;4922878;29;20163;-64
2023/07/05 06:52:31;;;;;;;15.68;6.10;;;19.40;88.80;;;;;;4917459;29;20528;-63
2023/07/05 06:54:56;;;;;;;13.10;5.32;;;19.50;88.70;;;;;;4928206;29;20047;-64
2023/07/05 06:57:22;;;;;;;10.30;6.05;;;19.60;88.20;;;;;;4928242;29;20046;-63
2023/07/05 06:59:48;;;;;;;9.68;5.82;;;19.80;87.70;;;;;;4926606;29;20032;-63
2023/07/05 07:02:14;;;;;;;11.38;6.20;;;19.90;88.20;;;;;;4928086;29;20028;-63
2023/07/05 07:04:40;;;;;;;10.70;6.20;;;20.00;87.90;;;;;;4922688;29;20051;-63
2023/07/05 07:07:06;;;;;;;12.63;6.10;;;20.20;88.20;;;;;;4924024;29;20030;-63
2023/07/05 07:09:33;;;;;;;10.52;6.53;;;20.40;86.90;;;;;;4919979;29;20035;-64
2023/07/05 07:11:59;;;;;;;12.15;6.65;;;20.60;86.30;;;;;;4920441;29;20047;-63
2023/07/05 07:14:25;;;;;;;10.65;7.00;;;20.70;86.40;;;;;;4911143;29;20050;-64
2023/07/05 07:16:51;;;;;;;12.40;6.90;;;20.70;85.60;;;;;;4925851;29;20469;-63
2023/07/05 07:19:20;;;;;;;14.13;7.18;;;20.80;86.40;;;;;;4925513;29;20032;-64
2023/07/05 07:21:46;;;;;;;11.57;7.00;;;20.80;85.60;;;;;;4922899;29;20040;-63
2023/07/05 07:24:12;;;;;;;17.80;7.65;;;20.90;86.80;;;;;;4926070;29;20116;-63
2023/07/05 07:26:38;;;;;;;10.50;6.65;;;20.90;86.00;;;;;;4919312;29;20759;-63
2023/07/05 07:29:04;;;;;;;12.18;7.38;;;20.90;87.00;;;;;;4921646;29;20111;-63
2023/07/05 07:31:32;;;;;;;11.95;7.30;;;21.00;86.60;;;;;;4926463;29;20043;-63
2023/07/05 07:34:00;;;;;;;12.98;7.38;;;21.10;86.20;;;;;;4926384;29;20031;-63
2023/07/05 07:36:29;;;;;;;14.25;7.60;;;21.10;86.90;;;;;;4926153;29;20054;-64
2023/07/05 07:38:55;;;;;;;16.10;8.52;;;21.10;86.60;;;;;;4923466;29;20465;-63
2023/07/05 07:41:34;;;;;;;13.75;7.90;;;21.10;86.80;;;;;;4910640;29;20043;-63
2023/07/05 07:44:02;;;;;;;13.05;7.95;;;21.10;87.50;;;;;;4904979;29;20036;-64
2023/07/05 07:46:29;;;;;;;16.98;8.65;;;21.20;88.40;;;;;;4919361;29;20035;-63
2023/07/05 07:48:57;;;;;;;12.35;8.45;;;21.20;86.60;;;;;;4926421;29;20044;-63
2023/07/05 07:51:25;;;;;;;15.65;8.20;;;21.20;86.30;;;;;;4927033;29;20035;-63
2023/07/05 07:53:52;;;;;;;11.80;8.02;;;21.20;87.40;;;;;;4909560;29;20577;-63
2023/07/05 07:56:20;;;;;;;18.33;8.73;;;21.20;87.20;;;;;;4924190;29;20123;-63
2023/07/05 07:58:51;;;;;;;13.57;7.65;;;21.20;87.10;;;;;;4923930;29;20048;-63
2023/07/05 08:01:25;;;;;;;15.90;8.57;;;21.20;86.50;;;;;;4921587;29;20083;-63
2023/07/05 08:03:52;;;;;;;14.90;8.48;;;21.30;87.30;;;;;;4918960;29;20040;-64
2023/07/05 08:06:20;;;;;;;16.90;8.85;;;21.30;86.40;;;;;;4924236;29;20031;-63
2023/07/05 08:08:46;;;;;;;14.45;9.18;;;21.30;87.40;;;;;;4926619;29;20071;-63
2023/07/05 08:11:12;;;;;;;13.60;8.65;;;21.30;88.00;;;;;;4925510;29;20066;-64
2023/07/05 08:13:40;;;;;;;14.90;8.63;;;21.30;88.80;;;;;;4924115;29;20099;-63
2023/07/05 08:16:08;;;;;;;18.83;9.07;;;21.40;88.60;;;;;;4923020;29;20059;-63
2023/07/05 08:18:33;;;;;;;15.25;9.10;;;21.40;86.40;;;;;;4919390;29;20437;-64
2023/07/05 08:20:59;;;;;;;13.70;8.25;;;21.40;86.40;;;;;;4920976;29;20059;-64
2023/07/05 08:23:25;;;;;;;13.98;8.55;;;21.50;86.20;;;;;;4920608;29;20564;-64
2023/07/05 08:25:55;;;;;;;13.13;8.40;;;21.50;85.70;;;;;;4926511;29;20040;-64
2023/07/05 08:28:25;;;;;;;12.70;8.27;;;21.60;85.40;;;;;;4926626;29;20036;-64
2023/07/05 08:30:56;;;;;;;14.80;8.40;;;21.60;84.30;;;;;;4922857;29;20068;-64
2023/07/05 08:33:23;;;;;;;11.40;7.88;;;21.60;84.50;;;;;;4921053;29;20035;-63
2023/07/05 08:36:02;;;;;;;13.07;7.78;;;21.60;84.30;;;;;;4920334;29;20064;-63
2023/07/05 08:38:27;;;;;;;11.45;7.05;;;21.60;85.40;;;;;;4921310;29;20168;-63
2023/07/05 08:40:59;;;;;;;15.55;7.15;;;21.70;84.40;;;;;;4918713;29;20032;-63
2023/07/05 08:43:40;;;;;;;13.90;7.25;;;21.70;84.80;;;;;;4926078;29;20032;-63
2023/07/05 08:46:12;;;;;;;11.63;7.38;;;21.70;84.80;;;;;;4922371;29;20054;-64
2023/07/05 08:48:38;;;;;;;13.20;7.25;;;21.70;85.30;;;;;;4921990;29;20043;-64
2023/07/05 08:51:05;;;;;;;13.00;7.82;;;21.70;85.20;;;;;;4924944;29;20035;-63
2023/07/05 08:53:34;;;;;;;16.00;7.50;;;21.80;84.60;;;;;;4919362;29;20759;-64
2023/07/05 08:56:05;;;;;;;10.25;7.22;;;21.70;84.30;;;;;;4920374;29;20107;-63
2023/07/05 08:58:45;;;;;;;14.68;7.28;;;21.60;84.40;;;;;;4919798;29;20041;-63
2023/07/05 09:01:20;;;;;;;15.07;7.85;;;21.60;83.60;;;;;;4909248;29;20120;-64
2023/07/05 09:03:49;;;;;;;12.23;7.28;;;21.70;84.30;;;;;;4924817;29;20035;-63
2023/07/05 09:06:54;;;;;;;12.23;7.32;;;21.80;83.90;;;;;;4923829;29;20095;-63
2023/07/05 09:09:24;;;;;;;12.57;7.68;;;21.90;83.80;;;;;;4893399;29;20568;-63
2023/07/05 09:12:03;;;;;;;12.40;7.07;;;22.00;83.70;;;;;;4921926;29;20035;-63
2023/07/05 09:14:40;;;;;;;15.70;7.45;;;22.10;83.70;;;;;;4925277;29;20040;-63
2023/07/05 09:17:30;;;;;;;15.00;6.90;;;22.20;83.70;;;;;;4924051;29;20044;-63
2023/07/05 09:20:25;;;;;;;10.20;6.35;;;22.40;82.50;;;;;;4924502;29;20555;-63
2023/07/05 09:22:52;;;;;;;13.45;7.07;;;22.50;82.20;;;;;;4923215;29;20032;-63
2023/07/05 09:25:22;;;;;;;11.88;7.15;;;22.70;82.30;;;;;;4924983;29;20074;-63
2023/07/05 09:27:56;;;;;;;13.50;7.95;;;22.80;81.80;;;;;;4917909;29;20032;-63
2023/07/05 09:30:26;;;;;;;12.38;7.55;;;22.90;81.90;;;;;;4917436;29;20031;-63
2023/07/05 09:33:02;;;;;;;13.27;7.45;;;23.00;82.40;;;;;;4917643;29;20879;-64
2023/07/05 09:35:29;;;;;;;;;;;23.00;80.70;;;;;;4922957;29;20812;-62
2023/07/05 09:38:01;;;;;;;12.15;7.10;;;23.00;82.70;;;;;;4924479;29;19986;-62
2023/07/05 09:40:39;;;;;;;11.70;6.93;;;23.00;82.50;;;;;;4901530;29;20063;-62
2023/07/05 09:43:13;;;;;;;11.85;6.75;;;22.90;81.70;;;;;;4920863;29;20024;-62
2023/07/05 09:45:39;;;;;;;11.52;7.63;;;22.90;82.70;;;;;;4918745;29;20654;-62
2023/07/05 09:48:09;;;;;;;10.15;7.10;;;23.00;82.90;;;;;;4903351;29;20412;-62
2023/07/05 09:50:35;;;;;;;10.20;6.00;;;23.10;83.10;;;;;;4916147;29;20449;-62
2023/07/05 09:53:31;;;;;;;10.43;6.50;;;23.20;83.00;;;;;;4921850;29;20119;-62
2023/07/05 09:56:09;;;;;;;11.33;7.00;;;23.40;83.90;;;;;;4924560;29;20060;-63
2023/07/05 09:58:37;;;;;;;7.32;5.32;;;23.70;84.00;;;;;;4924286;29;20303;-63
2023/07/05 10:01:06;;;;;;;10.02;5.68;;;23.80;81.40;;;;;;4921275;29;20035;-63
2023/07/05 10:03:37;;;;;;;7.85;5.28;;;23.80;82.90;;;;;;4918941;29;20055;-63
2023/07/05 10:06:07;;;;;;;8.07;5.40;;;24.00;83.80;;;;;;4919997;29;20038;-63
2023/07/05 10:08:43;;;;;;;10.95;5.47;;;24.10;82.40;;;;;;4915146;29;20035;-63
2023/07/05 10:11:45;;;;;;;8.30;4.70;;;24.00;82.00;;;;;;4922504;29;20644;-63
2023/07/05 10:14:15;;;;;;;9.18;5.78;;;24.00;82.90;;;;;;4908925;29;20704;-63
2023/07/05 10:16:48;;;;;;;9.73;5.57;;;24.10;82.80;;;;;;4920695;29;20059;-63
2023/07/05 10:19:30;;;;;;;7.38;4.47;;;24.20;83.90;;;;;;4922784;29;20380;-63
2023/07/05 10:22:28;;;;;;;5.93;3.85;;;24.30;82.60;;;;;;4919597;29;20040;-63
2023/07/05 10:25:01;;;;;;;9.73;4.47;;;24.40;82.20;;;;;;4918770;29;20081;-64
2023/07/05 10:27:32;;;;;;;5.03;3.72;;;24.30;83.60;;;;;;4920916;29;20035;-64
2023/07/05 10:30:08;;;;;;;5.22;3.60;;;24.30;84.20;;;;;;4926778;29;20151;-64
2023/07/05 10:32:36;;;;;;;6.63;3.60;;;24.50;84.50;;;;;;4925295;29;20127;-64
2023/07/05 10:35:09;;;;;;;4.38;3.35;;;24.50;82.90;;;;;;4929710;29;20036;-63
2023/07/05 10:37:37;;;;;;;5.40;3.22;;;24.50;82.10;;;;;;4929248;29;20750;-64
2023/07/05 10:40:08;;;;;;;4.85;3.15;;;24.40;83.80;;;;;;4928675;29;20043;-63
2023/07/05 10:42:37;;;;;;;4.97;2.75;;;24.40;83.70;;;;;;4929038;29;20475;-64
2023/07/05 10:45:06;;;;;;;5.45;2.65;;;24.20;83.20;;;;;;4928174;29;20579;-63
2023/07/05 10:47:32;;;;;;;3.65;2.80;;;24.10;83.70;;;;;;4924998;29;20027;-63
2023/07/05 10:50:09;;;;;;;4.25;2.65;;;24.00;84.80;;;;;;4926796;29;20241;-63
2023/07/05 10:52:37;;;;;;;3.88;2.15;;;24.00;86.50;;;;;;4924301;29;20690;-63
2023/07/05 10:55:03;;;;;;;6.38;2.88;;;24.10;85.40;;;;;;4924150;29;20043;-63
2023/07/05 10:57:36;;;;;;;4.38;2.58;;;24.10;86.00;;;;;;4923136;29;20031;-63
2023/07/05 11:00:15;;;;;;;6.00;3.17;;;24.30;84.90;;;;;;4921250;29;20539;-63
2023/07/05 11:02:47;;;;;;;3.40;2.40;;;24.30;86.60;;;;;;4922050;29;20052;-63
2023/07/05 11:05:29;;;;;;;2.78;2.20;;;24.40;85.90;;;;;;4928808;29;20039;-66
2023/07/05 11:07:59;;;;;;;4.45;2.60;;;24.50;86.00;;;;;;4925519;29;20536;-63
2023/07/05 11:10:27;;;;;;;4.63;2.50;;;24.60;85.20;;;;;;4923945;29;20162;-63
2023/07/05 11:12:53;;;;;;;2.42;2.03;;;24.60;84.90;;;;;;4923100;29;20047;-63
2023/07/05 11:15:21;;;;;;;3.75;2.15;;;24.70;84.70;;;;;;4922956;29;20054;-62
2023/07/05 11:17:48;;;;;;;3.50;2.28;;;24.60;84.70;;;;;;4920758;29;20044;-64
2023/07/05 11:20:39;;;;;;;6.20;2.28;;;24.50;84.40;;;;;;4921824;29;20099;-64
2023/07/05 11:23:09;;;;;;;5.40;2.00;;;24.50;84.70;;;;;;4927063;29;20031;-63
2023/07/05 11:25:58;;;;;;;4.63;2.13;;;24.50;85.60;;;;;;4925756;29;20432;-64
2023/07/05 11:28:34;;;;;;;2.25;2.00;;;24.60;86.80;;;;;;4923472;29;20126;-64
2023/07/05 11:31:01;;;;;;;3.50;2.13;;;24.70;84.80;;;;;;4923915;29;20691;-64
2023/07/05 11:33:27;;;;;;;3.10;2.30;;;24.60;85.10;;;;;;4921351;29;20038;-64
2023/07/05 11:36:05;;;;;;;5.75;3.28;;;24.50;84.70;;;;;;4920475;29;20560;-64
2023/07/05 11:38:37;;;;;;;3.35;2.15;;;24.40;84.50;;;;;;4920291;29;20488;-64
2023/07/05 11:41:05;;;;;;;5.95;2.65;;;24.30;85.00;;;;;;4909965;29;20897;-63
2023/07/05 11:43:34;;;;;;;5.40;2.47;;;24.40;85.90;;;;;;4923274;29;20047;-64
2023/07/05 11:46:00;;;;;;;2.50;1.95;;;24.40;84.80;;;;;;4924877;29;20068;-64
2023/07/05 11:48:52;;;;;;;5.07;2.25;;;24.50;84.50;;;;;;4922828;29;20143;-64
2023/07/05 11:51:25;;;;;;;4.43;2.28;;;24.50;85.60;;;;;;4915651;29;20039;-63
2023/07/05 11:53:53;;;;;;;2.60;1.58;;;24.60;84.90;;;;;;4919875;29;20033;-64
2023/07/05 11:56:21;;;;;;;3.55;1.95;;;24.50;84.40;;;;;;4920446;29;20464;-63
2023/07/05 11:58:51;;;;;;;3.80;2.20;;;24.60;85.40;;;;;;4926317;29;20059;-63
2023/07/05 12:01:26;;;;;;;4.85;2.15;;;24.60;85.30;;;;;;4926278;29;20138;-64
2023/07/05 12:03:58;;;;;;;6.25;1.80;;;24.50;83.20;;;;;;4923813;29;20121;-63
2023/07/05 12:06:46;;;;;;;2.38;1.80;;;24.60;83.80;;;;;;4922416;29;20110;-63
2023/07/05 12:09:25;;;;;;;3.50;1.70;;;24.70;84.90;;;;;;4922528;29;20079;-63
2023/07/05 12:11:56;;;;;;;2.35;1.75;;;24.80;83.60;;;;;;4920700;29;20042;-63
2023/07/05 12:14:21;;;;;;;2.50;1.45;;;24.70;83.00;;;;;;4923689;29;20729;-63
2023/07/05 12:16:47;;;;;;;2.50;1.60;;;24.70;82.00;;;;;;4925991;29;20111;-63
2023/07/05 12:19:30;;;;;;;1.92;1.60;;;24.70;82.00;;;;;;4925574;29;20044;-65
2023/07/05 12:22:06;;;;;;;4.78;1.60;;;24.70;82.80;;;;;;4922654;29;20493;-62
2023/07/05 12:24:43;;;;;;;2.40;1.58;;;24.80;81.20;;;;;;4920346;29;20552;-63
2023/07/05 12:27:24;;;;;;;2.80;1.60;;;24.80;82.70;;;;;;4923410;29;20081;-63
2023/07/05 12:29:52;;;;;;;3.42;1.40;;;24.90;81.10;;;;;;4920804;29;20651;-63
2023/07/05 12:32:21;;;;;;;1.88;1.33;;;24.80;82.00;;;;;;4924212;29;20074;-63
2023/07/05 12:35:02;;;;;;;6.03;1.75;;;24.90;80.70;;;;;;4926956;29;20051;-63
2023/07/05 12:37:32;;;;;;;2.75;1.50;;;24.90;80.00;;;;;;4925396;29;20119;-63
2023/07/05 12:40:12;;;;;;;2.25;1.60;;;25.00;80.70;;;;;;4923755;29;20118;-63
2023/07/05 12:43:03;;;;;;;2.22;1.73;;;25.00;81.70;;;;;;4919928;29;20040;-62
2023/07/05 12:45:33;;;;;;;4.90;1.80;;;25.00;79.70;;;;;;4921316;29;20028;-62
2023/07/05 12:48:20;;;;;;;1.92;1.45;;;24.80;79.70;;;;;;4922498;29;20112;-62
2023/07/05 12:50:47;;;;;;;2.53;2.13;;;24.70;80.20;;;;;;4923174;29;20031;-63
2023/07/05 12:53:20;;;;;;;2.88;1.60;;;24.50;80.20;;;;;;4925209;29;20040;-63
2023/07/05 12:55:59;;;;;;;2.13;1.58;;;24.50;81.20;;;;;;4924693;29;20119;-62
2023/07/05 12:58:27;;;;;;;2.28;1.75;;;24.50;81.50;;;;;;4921094;29;20036;-63